Time;durP1;ratioP1;P1;durP2;ratioP2;P2;SDS_P1;SDS_P2;PMS_P1;PMS_P2;Temp;Humidity;BMP_temperature;BMP_pressure;BME280_temperature;BME280_humidity;BME280_pressure;Samples;Min_cycle;Max_cycle;Signal;HPM_P1;HPM_P2
2024/02/20 00:02:18;;;;;;;;;;;;;;;6.73;100.00;102863.94;5074172;28;20188;-77
2024/02/20 00:04:43;;;;;;;;;;;;;;;6.70;100.00;102874.34;5074967;28;19916;-77
2024/02/20 00:07:08;;;;;;;;;;;;;;;6.68;100.00;102876.94;5077281;28;19962;-76
2024/02/20 00:09:33;;;;;;;;;;;;;;;6.70;100.00;102871.75;5077470;28;20115;-77
2024/02/20 00:12:00;;;;;;;;;;;;;;;6.69;100.00;102862.16;5077297;28;20266;-77
2024/02/20 00:14:25;;;;;;;;;;;;;;;6.66;100.00;102870.84;5077730;28;20211;-77
2024/02/20 00:16:52;;;;;;;;;;;;;;;6.68;100.00;102861.31;5077500;28;19923;-77
2024/02/20 00:19:17;;;;;;;;;;;;;;;6.65;100.00;102861.28;5077814;28;20123;-77
2024/02/20 00:21:43;;;;;;;;;;;;;;;6.62;100.00;102861.28;5078790;28;19916;-77
2024/02/20 00:24:08;;;;;;;;;;;;;;;6.54;100.00;102866.38;5078729;28;20581;-77
2024/02/20 00:26:33;;;;;;;;;;;;;;;6.53;100.00;102863.78;5078785;28;19917;-77
2024/02/20 00:28:58;;;;;;;;;;;;;;;6.52;100.00;102857.69;5078393;28;20218;-77
2024/02/20 00:31:24;;;;;;;;;;;;;;;6.57;100.00;102862.97;5078124;28;19916;-77
2024/02/20 00:33:49;;;;;;;;;;;;;;;6.57;100.00;102862.97;5077906;28;19940;-77
2024/02/20 00:36:14;;;;;;;;;;;;;;;6.57;100.00;102865.56;5078089;28;19908;-77
2024/02/20 00:38:40;;;;;;;;;;;;;;;6.56;100.00;102862.94;5077983;28;20204;-77
2024/02/20 00:41:05;;;;;;;;;;;;;;;6.56;100.00;102870.75;5096066;28;19916;-77
2024/02/20 00:43:30;;;;;;;;;;;;;;;6.55;100.00;102869.88;5098262;28;20441;-77
2024/02/20 00:45:56;;;;;;;;;;;;;;;6.57;100.00;102862.97;5097862;28;19916;-77
2024/02/20 00:48:21;;;;;;;;;;;;;;;6.62;100.00;102874.28;5098102;28;20082;-77
2024/02/20 00:50:46;;;;;;;;;;;;;;;6.63;100.00;102878.63;5080115;28;19938;-77
2024/02/20 00:53:13;;;;;;;;;;;;;;;6.64;100.00;102869.06;5097382;28;19916;-77
2024/02/20 00:55:38;;;;;;;;;;;;;;;6.66;100.00;102863.03;5098138;28;19922;-77
2024/02/20 00:58:04;;;;;;;;;;;;;;;6.69;100.00;102863.06;5097393;28;19955;-77
2024/02/20 01:00:30;;;;;;;;;;;;;;;6.74;100.00;102865.69;5079656;28;19916;-77
2024/02/20 01:02:56;;;;;;;;;;;;;;;6.81;100.00;102861.41;5097600;28;19916;-77
2024/02/20 01:05:22;;;;;;;;;;;;;;;6.84;100.00;102862.31;5097905;28;19916;-77
2024/02/20 01:07:47;;;;;;;;;;;;;;;6.89;100.00;102877.94;5079351;28;20272;-77
2024/02/20 01:10:12;;;;;;;;;;;;;;;6.91;100.00;102873.63;5097448;28;20016;-77
2024/02/20 01:12:38;;;;;;;;;;;;;;;6.96;100.00;102873.66;5079420;28;19923;-77
2024/02/20 01:15:04;;;;;;;;;;;;;;;6.98;100.00;102875.41;5097145;28;19916;-77
2024/02/20 01:17:29;;;;;;;;;;;;;;;6.98;100.00;102875.41;5096747;28;19916;-77
2024/02/20 01:19:54;;;;;;;;;;;;;;;6.92;100.00;102865.81;5097078;28;19916;-77
2024/02/20 01:22:20;;;;;;;;;;;;;;;6.87;100.00;102867.50;5097551;28;19916;-77
2024/02/20 01:24:45;;;;;;;;;;;;;;;6.92;100.00;102867.56;5097658;28;19923;-77
2024/02/20 01:27:10;;;;;;;;;;;;;;;6.99;100.00;102877.16;5096937;28;20128;-77
2024/02/20 01:29:36;;;;;;;;;;;;;;;6.92;100.00;102860.59;5097200;28;19912;-77
2024/02/20 01:32:02;;;;;;;;;;;;;;;6.95;100.00;102861.50;5096993;28;19918;-77
2024/02/20 01:34:27;;;;;;;;;;;;;;;6.99;100.00;102868.47;5097897;28;19940;-77
2024/02/20 01:36:52;;;;;;;;;;;;;;;7.00;100.00;102870.22;5097002;28;20142;-77
2024/02/20 01:39:20;;;;;;;;;;;;;;;6.97;100.00;102873.69;5097190;28;20238;-77
2024/02/20 01:41:47;;;;;;;;;;;;;;;6.94;100.00;102867.56;5097361;28;20290;-76
2024/02/20 01:44:12;;;;;;;;;;;;;;;6.98;100.00;102872.81;5078257;28;19942;-77
2024/02/20 01:46:37;;;;;;;;;;;;;;;6.99;100.00;102868.47;5097688;28;19916;-77
2024/02/20 01:49:03;;;;;;;;;;;;;;;7.01;100.00;102865.00;5078509;28;19960;-77
2024/02/20 01:51:29;;;;;;;;;;;;;;;6.97;100.00;102858.03;5097099;28;19916;-77
2024/02/20 01:53:54;;;;;;;;;;;;;;;6.98;100.00;102862.38;5096611;28;19916;-77
2024/02/20 01:56:20;;;;;;;;;;;;;;;6.92;100.00;102860.59;5097234;28;19962;-77
2024/02/20 01:58:45;;;;;;;;;;;;;;;6.90;100.00;102862.34;5096680;28;19923;-76
2024/02/20 02:01:11;;;;;;;;;;;;;;;6.92;100.00;102854.53;5096309;28;19920;-77
2024/02/20 02:03:36;;;;;;;;;;;;;;;6.95;100.00;102856.28;5097299;28;20114;-77
2024/02/20 02:06:02;;;;;;;;;;;;;;;6.95;100.00;102858.88;5078298;28;19916;-77
2024/02/20 02:08:27;;;;;;;;;;;;;;;7.00;100.00;102857.19;5096811;28;19984;-77
2024/02/20 02:10:52;;;;;;;;;;;;;;;7.04;100.00;102851.13;5096187;28;19916;-77
2024/02/20 02:13:18;;;;;;;;;;;;;;;7.07;100.00;102849.41;5096231;28;19922;-77
2024/02/20 02:15:43;;;;;;;;;;;;;;;7.07;100.00;102852.00;5096592;28;19999;-77
2024/02/20 02:18:08;;;;;;;;;;;;;;;7.08;100.00;102847.69;5096262;28;19916;-77
2024/02/20 02:20:33;;;;;;;;;;;;;;;7.08;100.00;102847.69;5078196;28;19923;-77
2024/02/20 02:22:59;;;;;;;;;;;;;;;7.06;100.00;102855.50;5096185;28;19915;-77
2024/02/20 02:25:25;;;;;;;;;;;;;;;7.09;100.00;102858.13;5096360;28;19916;-76
2024/02/20 02:27:50;;;;;;;;;;;;;;;7.11;100.00;102856.41;5095714;28;19919;-77
2024/02/20 02:30:16;;;;;;;;;;;;;;;7.15;100.00;102859.91;5077800;28;19955;-77
2024/02/20 02:32:41;;;;;;;;;;;;;;;7.19;100.00;102863.41;5096527;28;19916;-77
2024/02/20 02:35:09;;;;;;;;;;;;;;;7.19;100.00;102859.03;5095648;28;20249;-77
2024/02/20 02:37:35;;;;;;;;;;;;;;;7.20;100.00;102859.91;5096221;28;19954;-77
2024/02/20 02:40:00;;;;;;;;;;;;;;;7.20;100.00;102862.53;5095566;28;19983;-77
2024/02/20 02:42:25;;;;;;;;;;;;;;;7.21;100.00;102861.66;5095597;28;19952;-77
2024/02/20 02:44:51;;;;;;;;;;;;;;;7.19;100.00;102858.19;5095663;28;19939;-77
2024/02/20 02:47:16;;;;;;;;;;;;;;;7.16;100.00;102858.16;5077574;28;19916;-77
2024/02/20 02:49:41;;;;;;;;;;;;;;;7.16;100.00;102860.75;5095770;28;19920;-77
2024/02/20 02:52:06;;;;;;;;;;;;;;;7.10;100.00;102857.25;5095750;28;19916;-77
2024/02/20 02:54:32;;;;;;;;;;;;;;;7.11;100.00;102864.22;5077543;28;20135;-77
2024/02/20 02:57:00;;;;;;;;;;;;;;;7.10;100.00;102861.59;5077399;28;20166;-77
2024/02/20 02:59:25;;;;;;;;;;;;;;;7.10;100.00;102859.00;5095545;28;20217;-77
2024/02/20 03:01:50;;;;;;;;;;;;;;;7.13;100.00;102861.63;5095318;28;20149;-77
2024/02/20 03:04:16;;;;;;;;;;;;;;;7.15;100.00;102865.13;5095542;28;19923;-77
2024/02/20 03:06:41;;;;;;;;;;;;;;;7.09;100.00;102862.44;5095585;28;20142;-77
2024/02/20 03:09:12;;;;;;;;;;;;;;;7.03;100.00;102858.06;5095170;28;19992;-77
2024/02/20 03:11:38;;;;;;;;;;;;;;;7.03;100.00;102863.28;5095585;28;19947;-77
2024/02/20 03:14:04;;;;;;;;;;;;;;;7.03;100.00;102858.06;5094891;28;19916;-77
2024/02/20 03:16:29;;;;;;;;;;;;;;;6.92;100.00;102859.75;5095614;28;19923;-77
2024/02/20 03:18:54;;;;;;;;;;;;;;;6.90;100.00;102857.13;5077114;28;19923;-77
2024/02/20 03:21:20;;;;;;;;;;;;;;;6.90;100.00;102849.31;5095504;28;19916;-76
2024/02/20 03:23:45;;;;;;;;;;;;;;;6.92;100.00;102854.53;5095695;28;19916;-77
2024/02/20 03:26:10;;;;;;;;;;;;;;;6.90;100.00;102849.31;5095148;28;19987;-77
2024/02/20 03:28:36;;;;;;;;;;;;;;;6.90;100.00;102841.50;5095738;28;19919;-77
2024/02/20 03:31:01;;;;;;;;;;;;;;;6.90;100.00;102848.44;5085093;28;20278;-77
2024/02/20 03:33:29;;;;;;;;;;;;;;;6.87;100.00;102843.22;5054996;28;19917;-77
2024/02/20 03:35:54;;;;;;;;;;;;;;;6.88;100.00;102844.97;5055180;28;20128;-77
2024/02/20 03:38:20;;;;;;;;;;;;;;;6.85;100.00;102835.38;5055038;28;19928;-77
2024/02/20 03:40:45;;;;;;;;;;;;;;;6.85;100.00;102830.16;5104767;28;19923;-77
2024/02/20 03:43:10;;;;;;;;;;;;;;;6.86;100.00;102831.06;5099073;28;19982;-77
2024/02/20 03:45:36;;;;;;;;;;;;;;;6.89;100.00;102828.47;5099620;28;19925;-77
2024/02/20 03:48:01;;;;;;;;;;;;;;;6.91;100.00;102822.41;5081006;28;19916;-76
2024/02/20 03:50:26;;;;;;;;;;;;;;;6.90;100.00;102823.25;5081211;28;19923;-77
2024/02/20 03:52:52;;;;;;;;;;;;;;;6.86;100.00;102824.13;5099475;28;19923;-77
2024/02/20 03:55:18;;;;;;;;;;;;;;;6.80;100.00;102826.66;5099356;28;19915;-77
2024/02/20 03:57:43;;;;;;;;;;;;;;;6.77;100.00;102818.84;5099437;28;19918;-77
2024/02/20 04:00:11;;;;;;;;;;;;;;;6.80;100.00;102820.59;5098418;28;19916;-77
2024/02/20 04:02:45;;;;;;;;;;;;;;;6.82;100.00;102818.84;5099026;28;20275;-77
2024/02/20 04:05:14;;;;;;;;;;;;;;;6.84;100.00;102817.13;5098532;28;19961;-77
2024/02/20 04:07:40;;;;;;;;;;;;;;;6.83;100.00;102818.88;5099147;28;19908;-77
2024/02/20 04:10:07;;;;;;;;;;;;;;;6.81;100.00;102809.31;5098031;28;19991;-77
2024/02/20 04:12:32;;;;;;;;;;;;;;;6.80;100.00;102812.78;5098758;28;19920;-77
2024/02/20 04:14:57;;;;;;;;;;;;;;;6.79;100.00;102805.84;5098601;28;20335;-77
2024/02/20 04:17:22;;;;;;;;;;;;;;;6.83;100.00;102805.84;5098897;28;19920;-77
2024/02/20 04:19:48;;;;;;;;;;;;;;;6.82;100.00;102800.63;5098816;28;19916;-77
2024/02/20 04:22:13;;;;;;;;;;;;;;;6.81;100.00;102796.28;5098199;28;19915;-77
2024/02/20 04:24:39;;;;;;;;;;;;;;;6.83;100.00;102810.19;5099020;28;20271;-77
2024/02/20 04:27:04;;;;;;;;;;;;;;;6.81;100.00;102807.56;5080064;28;19947;-77
2024/02/20 04:29:29;;;;;;;;;;;;;;;6.84;100.00;102815.41;5098605;28;19924;-77
2024/02/20 04:31:55;;;;;;;;;;;;;;;6.90;100.00;102815.44;5098220;28;19946;-77
2024/02/20 04:34:20;;;;;;;;;;;;;;;6.95;100.00;102823.31;5098440;28;20294;-77
2024/02/20 04:36:46;;;;;;;;;;;;;;;6.95;100.00;102820.69;5098486;28;19916;-77
2024/02/20 04:39:11;;;;;;;;;;;;;;;6.94;100.00;102818.94;5097774;28;19924;-77
2024/02/20 04:41:36;;;;;;;;;;;;;;;6.91;100.00;102825.03;5098323;28;19923;-77
2024/02/20 04:44:01;;;;;;;;;;;;;;;6.90;100.00;102823.25;5079820;28;19943;-76
2024/02/20 04:46:27;;;;;;;;;;;;;;;6.88;100.00;102813.72;5098146;28;19920;-77
2024/02/20 04:48:53;;;;;;;;;;;;;;;6.84;100.00;102825.84;5097880;28;20308;-77
2024/02/20 04:51:18;;;;;;;;;;;;;;;6.79;100.00;102826.69;5096722;28;19916;-77
2024/02/20 04:53:43;;;;;;;;;;;;;;;6.76;100.00;102822.28;5098322;28;19927;-77
2024/02/20 04:56:10;;;;;;;;;;;;;;;6.79;100.00;102824.06;5097645;28;19997;-77
2024/02/20 04:58:35;;;;;;;;;;;;;;;6.76;100.00;102830.09;5097818;28;19916;-77
2024/02/20 05:01:01;;;;;;;;;;;;;;;6.79;100.00;102835.34;5097678;28;20252;-77
2024/02/20 05:03:26;;;;;;;;;;;;;;;6.83;100.00;102834.50;5098094;28;20041;-77
2024/02/20 05:05:51;;;;;;;;;;;;;;;6.82;100.00;102830.16;5097359;28;19957;-76
2024/02/20 05:08:18;;;;;;;;;;;;;;;6.78;100.00;102828.38;5079438;28;19920;-77
2024/02/20 05:10:43;;;;;;;;;;;;;;;6.83;100.00;102820.63;5082317;28;20228;-77
2024/02/20 05:13:09;;;;;;;;;;;;;;;6.87;100.00;102818.03;5076916;28;19916;-77
2024/02/20 05:15:34;;;;;;;;;;;;;;;6.85;100.00;102811.94;5077500;28;19916;-76
2024/02/20 05:17:59;;;;;;;;;;;;;;;6.82;100.00;102806.72;5076953;28;19958;-77
2024/02/20 05:20:25;;;;;;;;;;;;;;;6.80;100.00;102813.63;5059509;28;20194;-76
2024/02/20 05:22:50;;;;;;;;;;;;;;;6.75;100.00;102806.66;5077346;28;19928;-76
2024/02/20 05:25:15;;;;;;;;;;;;;;;6.77;100.00;102800.63;5077116;28;20095;-76
2024/02/20 05:27:40;;;;;;;;;;;;;;;6.79;100.00;102798.03;5077253;28;19924;-76
2024/02/20 05:30:06;;;;;;;;;;;;;;;6.78;100.00;102791.06;5077049;28;19931;-76
2024/02/20 05:32:31;;;;;;;;;;;;;;;6.81;100.00;102791.09;5077062;28;19962;-76
2024/02/20 05:34:56;;;;;;;;;;;;;;;6.83;100.00;102791.97;5076832;28;19912;-77
2024/02/20 05:37:22;;;;;;;;;;;;;;;6.83;100.00;102790.22;5058723;28;19923;-76
2024/02/20 05:39:47;;;;;;;;;;;;;;;6.84;100.00;102796.28;5076770;28;19955;-77
2024/02/20 05:42:12;;;;;;;;;;;;;;;6.81;100.00;102797.16;5076527;28;20230;-76
2024/02/20 05:44:37;;;;;;;;;;;;;;;6.79;100.00;102801.50;5076580;28;20153;-76
2024/02/20 05:47:03;;;;;;;;;;;;;;;6.76;100.00;102800.59;5076896;28;20050;-77
2024/02/20 05:49:28;;;;;;;;;;;;;;;6.70;100.00;102802.28;5058687;28;20392;-77
2024/02/20 05:51:54;;;;;;;;;;;;;;;6.65;100.00;102805.72;5058661;28;19916;-77
2024/02/20 05:54:19;;;;;;;;;;;;;;;6.58;100.00;102806.53;5076854;28;20081;-77
2024/02/20 05:56:44;;;;;;;;;;;;;;;6.64;100.00;102806.56;5076927;28;20267;-77
2024/02/20 05:59:09;;;;;;;;;;;;;;;6.65;100.00;102804.00;5057746;28;19961;-77
2024/02/20 06:01:35;;;;;;;;;;;;;;;6.64;100.00;102809.19;5076599;28;19916;-77
2024/02/20 06:04:04;;;;;;;;;;;;;;;6.65;100.00;102809.19;5057785;28;20109;-77
2024/02/20 06:06:29;;;;;;;;;;;;;;;6.64;100.00;102815.28;5076491;28;20135;-77
2024/02/20 06:08:54;;;;;;;;;;;;;;;6.62;100.00;102814.41;5076118;28;19920;-77
2024/02/20 06:11:22;;;;;;;;;;;;;;;6.56;100.00;102816.09;5075996;28;19916;-77
2024/02/20 06:13:48;;;;;;;;;;;;;;;6.52;100.00;102807.38;5076317;28;19916;-77
2024/02/20 06:16:13;;;;;;;;;;;;;;;6.54;100.00;102811.72;5076068;28;19916;-77
2024/02/20 06:18:38;;;;;;;;;;;;;;;6.60;100.00;102803.06;5076385;28;19924;-77
2024/02/20 06:21:04;;;;;;;;;;;;;;;6.60;100.00;102813.50;5057589;28;19923;-77
2024/02/20 06:23:29;;;;;;;;;;;;;;;6.54;100.00;102796.09;5058540;28;19954;-77
2024/02/20 06:25:55;;;;;;;;;;;;;;;6.59;100.00;102803.09;5076024;28;19988;-77
2024/02/20 06:28:20;;;;;;;;;;;;;;;6.59;100.00;102795.28;5075429;28;19921;-77
2024/02/20 06:30:47;;;;;;;;;;;;;;;6.58;100.00;102789.19;5075929;28;20014;-77
2024/02/20 06:33:12;;;;;;;;;;;;;;;6.58;100.00;102786.59;5075472;28;19920;-77
2024/02/20 06:35:38;;;;;;;;;;;;;;;6.59;100.00;102790.09;5075981;28;19924;-77
2024/02/20 06:38:03;;;;;;;;;;;;;;;6.56;100.00;102788.31;5057601;28;19972;-77
2024/02/20 06:40:28;;;;;;;;;;;;;;;6.60;100.00;102786.59;5089265;28;20084;-77
2024/02/20 06:42:53;;;;;;;;;;;;;;;6.59;100.00;102779.66;5095645;28;19924;-77
2024/02/20 06:45:19;;;;;;;;;;;;;;;6.63;100.00;102786.63;5095831;28;20133;-77
2024/02/20 06:47:46;;;;;;;;;;;;;;;6.66;100.00;102789.25;5095997;28;19916;-76
2024/02/20 06:50:14;;;;;;;;;;;;;;;6.67;100.00;102788.38;5095693;28;20119;-77
2024/02/20 06:52:40;;;;;;;;;;;;;;;6.64;100.00;102790.97;5095858;28;20346;-77
2024/02/20 06:55:06;;;;;;;;;;;;;;;6.67;100.00;102791.84;5095988;28;20285;-77
2024/02/20 06:57:31;;;;;;;;;;;;;;;6.71;100.00;102791.03;5096058;28;19916;-77
2024/02/20 06:59:57;;;;;;;;;;;;;;;6.73;100.00;102791.00;5095470;28;20064;-77
2024/02/20 07:02:22;;;;;;;;;;;;;;;6.70;100.00;102789.28;5095591;28;20180;-77
2024/02/20 07:04:47;;;;;;;;;;;;;;;6.70;100.00;102796.22;5096026;28;19987;-76
2024/02/20 07:07:12;;;;;;;;;;;;;;;6.69;100.00;102790.16;5095380;28;19916;-77
2024/02/20 07:09:37;;;;;;;;;;;;;;;6.71;100.00;102788.44;5095565;28;19920;-77
2024/02/20 07:12:03;;;;;;;;;;;;;;;6.72;100.00;102779.75;5095087;28;19916;-76
2024/02/20 07:14:28;;;;;;;;;;;;;;;6.76;100.00;102779.78;5094840;28;20127;-77
2024/02/20 07:16:54;;;;;;;;;;;;;;;6.76;100.00;102777.16;5095471;28;20207;-77
2024/02/20 07:19:21;;;;;;;;;;;;;;;6.78;100.00;102781.50;5095397;28;19916;-77
2024/02/20 07:21:47;;;;;;;;;;;;;;;6.80;100.00;102789.34;5077588;28;19916;-77
2024/02/20 07:24:12;;;;;;;;;;;;;;;6.79;100.00;102783.25;5095242;28;20149;-77
2024/02/20 07:26:37;;;;;;;;;;;;;;;6.80;100.00;102779.78;5095800;28;20002;-77
2024/02/20 07:29:02;;;;;;;;;;;;;;;6.83;100.00;102782.41;5076575;28;19920;-76
2024/02/20 07:31:28;;;;;;;;;;;;;;;6.86;100.00;102790.25;5077155;28;19923;-77
2024/02/20 07:33:53;;;;;;;;;;;;;;;6.85;100.00;102779.81;5077052;28;19916;-77
2024/02/20 07:36:18;;;;;;;;;;;;;;;6.84;100.00;102784.16;5095718;28;19919;-77
2024/02/20 07:38:44;;;;;;;;;;;;;;;6.84;100.00;102776.34;5095330;28;20127;-77
2024/02/20 07:41:09;;;;;;;;;;;;;;;6.87;100.00;102784.16;5094673;28;20111;-77
2024/02/20 07:43:35;;;;;;;;;;;;;;;6.89;100.00;102779.88;5095408;28;19916;-77
2024/02/20 07:46:01;;;;;;;;;;;;;;;6.94;100.00;102781.63;5095187;28;20230;-77
2024/02/20 07:48:26;;;;;;;;;;;;;;;6.94;100.00;102792.03;5076754;28;20084;-77
2024/02/20 07:50:51;;;;;;;;;;;;;;;6.95;100.00;102788.53;5095284;28;19923;-77
2024/02/20 07:53:16;;;;;;;;;;;;;;;6.97;100.00;102789.44;5095285;28;19916;-77
2024/02/20 07:55:42;;;;;;;;;;;;;;;6.97;100.00;102790.31;5095409;28;20145;-77
2024/02/20 07:58:08;;;;;;;;;;;;;;;6.99;100.00;102796.41;5095261;28;19916;-77
2024/02/20 08:00:34;;;;;;;;;;;;;;;7.00;100.00;102795.53;5096067;28;20226;-77
2024/02/20 08:02:59;;;;;;;;;;;;;;;7.02;100.00;102798.13;5094699;28;19916;-77
2024/02/20 08:05:24;;;;;;;;;;;;;;;7.02;100.00;102804.25;5093780;28;19916;-77
2024/02/20 08:07:50;;;;;;;;;;;;;;;7.04;100.00;102805.13;5094917;28;19916;-77
2024/02/20 08:10:15;;;;;;;;;;;;;;;7.06;100.00;102794.72;5094888;28;19920;-77
2024/02/20 08:12:41;;;;;;;;;;;;;;;7.09;100.00;102797.31;5095335;28;19987;-77
2024/02/20 08:15:07;;;;;;;;;;;;;;;7.09;100.00;102795.59;5094713;28;19958;-77
2024/02/20 08:17:32;;;;;;;;;;;;;;;7.08;100.00;102792.97;5076921;28;19927;-77
2024/02/20 08:19:58;;;;;;;;;;;;;;;7.06;100.00;102787.75;5094945;28;20215;-77
2024/02/20 08:22:23;;;;;;;;;;;;;;;7.09;100.00;102794.72;5076816;28;19909;-77
2024/02/20 08:24:48;;;;;;;;;;;;;;;7.14;100.00;102785.19;5073917;28;19950;-77
2024/02/20 08:27:14;;;;;;;;;;;;;;;7.21;100.00;102791.31;5077213;28;20042;-77
2024/02/20 08:29:39;;;;;;;;;;;;;;;7.23;100.00;102789.56;5078239;28;19946;-77
2024/02/20 08:32:04;;;;;;;;;;;;;;;7.23;100.00;102800.00;5078178;28;19916;-77
2024/02/20 08:34:31;;;;;;;;;;;;;;;7.27;100.00;102802.59;5078303;28;19909;-77
2024/02/20 08:36:56;;;;;;;;;;;;;;;7.26;100.00;102797.41;5077785;28;20030;-77
2024/02/20 08:39:23;;;;;;;;;;;;;;;7.27;100.00;102794.78;5078975;28;19932;-77
2024/02/20 08:41:48;;;;;;;;;;;;;;;7.29;100.00;102795.69;5077856;28;19917;-77
2024/02/20 08:44:14;;;;;;;;;;;;;;;7.31;100.00;102795.66;5077567;28;19951;-77
2024/02/20 08:46:39;;;;;;;;;;;;;;;7.32;100.00;102786.16;5060025;28;20140;-77
2024/02/20 08:49:04;;;;;;;;;;;;;;;7.34;100.00;102782.66;5077097;28;19920;-77
2024/02/20 08:51:29;;;;;;;;;;;;;;;7.37;100.00;102781.78;5078052;28;19929;-77
2024/02/20 08:53:55;;;;;;;;;;;;;;;7.41;100.00;102780.97;5077497;28;20111;-77
2024/02/20 08:56:20;;;;;;;;;;;;;;;7.45;100.00;102780.97;5077076;28;19942;-77
2024/02/20 08:58:45;;;;;;;;;;;;;;;7.44;100.00;102787.06;5061374;28;19920;-77
2024/02/20 09:01:11;;;;;;;;;;;;;;;7.47;100.00;102787.03;5068241;28;20393;-77
2024/02/20 09:03:39;;;;;;;;;;;;;;;7.49;100.00;102781.84;5064998;28;20184;-77
2024/02/20 09:06:23;;;;;;;;;;;;;;;7.54;100.00;102781.88;5059687;28;19956;-77
2024/02/20 09:08:49;;;;;;;;;;;;;;;7.58;100.00;102786.22;5053454;28;20188;-77
2024/02/20 09:11:14;;;;;;;;;;;;;;;7.55;100.00;102779.28;5072936;28;19916;-77
2024/02/20 09:13:39;;;;;;;;;;;;;;;7.57;100.00;102776.69;5057010;28;19927;-77
2024/02/20 09:16:05;;;;;;;;;;;;;;;7.61;100.00;102778.41;5056431;28;21235;-77
2024/02/20 09:18:36;;;;;;;;;;;;;;;7.64;100.00;102779.28;5058421;28;20331;-77
2024/02/20 09:21:03;;;;;;;;;;;;;;;7.65;100.00;102778.41;5062891;28;19919;-77
2024/02/20 09:23:28;;;;;;;;;;;;;;;7.67;100.00;102774.06;5061528;28;19944;-77
2024/02/20 09:25:53;;;;;;;;;;;;;;;7.73;100.00;102785.38;5059121;28;19927;-77
2024/02/20 09:28:19;;;;;;;;;;;;;;;7.76;100.00;102773.22;5073000;28;19920;-77
2024/02/20 09:30:44;;;;;;;;;;;;;;;7.79;100.00;102768.03;5070584;28;19920;-77
2024/02/20 09:33:09;;;;;;;;;;;;;;;7.82;100.00;102767.13;5065254;28;20031;-77
2024/02/20 09:35:35;;;;;;;;;;;;;;;7.84;100.00;102770.63;5072346;28;19921;-77
2024/02/20 09:38:00;;;;;;;;;;;;;;;7.85;100.00;102762.81;5056707;28;19974;-77
2024/02/20 09:40:25;;;;;;;;;;;;;;;7.86;100.00;102769.78;5057817;28;19928;-77
2024/02/20 09:42:51;;;;;;;;;;;;;;;7.88;100.00;102762.81;5057436;28;19917;-77
2024/02/20 09:45:19;;;;;;;;;;;;;;;7.94;100.00;102761.09;5055496;28;20140;-77
2024/02/20 09:47:46;;;;;;;;;;;;;;;7.98;100.00;102755.84;5055203;28;19917;-77
2024/02/20 09:50:12;;;;;;;;;;;;;;;8.03;100.00;102751.50;5055945;28;19924;-77
2024/02/20 09:52:38;;;;;;;;;;;;;;;8.03;100.00;102751.50;5053472;28;19916;-77
2024/02/20 09:55:05;;;;;;;;;;;;;;;8.05;100.00;102749.78;5055787;28;19927;-77
2024/02/20 09:57:31;;;;;;;;;;;;;;;8.05;100.00;102744.56;5056692;28;20096;-77
2024/02/20 09:59:57;;;;;;;;;;;;;;;8.09;100.00;102745.44;5073545;28;20208;-77
2024/02/20 10:02:28;;;;;;;;;;;;;;;8.10;100.00;102736.75;5063383;28;19916;-77
2024/02/20 10:04:53;;;;;;;;;;;;;;;8.12;100.00;102735.00;5070220;28;19966;-77
2024/02/20 10:07:19;;;;;;;;;;;;;;;8.11;100.00;102735.84;5070043;28;19917;-77
2024/02/20 10:09:44;;;;;;;;;;;;;;;8.11;100.00;102727.16;5073257;28;20134;-77
2024/02/20 10:12:23;;;;;;;;;;;;;;;8.11;100.00;102738.47;5069907;28;19927;-77
2024/02/20 10:14:48;;;;;;;;;;;;;;;8.13;100.00;102736.75;5070180;28;19940;-77
2024/02/20 10:17:17;;;;;;;;;;;;;;;8.16;100.00;102730.66;5070415;28;20215;-77
2024/02/20 10:19:45;;;;;;;;;;;;;;;8.17;100.00;102729.78;5071006;28;19959;-77
2024/02/20 10:22:10;;;;;;;;;;;;;;;8.21;100.00;102737.59;5072207;28;19927;-78
2024/02/20 10:24:36;;;;;;;;;;;;;;;8.24;100.00;102747.16;5053667;28;20322;-77
2024/02/20 10:27:02;;;;;;;;;;;;;;;8.27;100.00;102731.50;5071369;28;19916;-77
2024/02/20 10:29:30;;;;;;;;;;;;;;;8.30;100.00;102728.03;5070648;28;19920;-77
2024/02/20 10:31:55;;;;;;;;;;;;;;;8.34;100.00;102729.75;5052623;28;20526;-77
2024/02/20 10:34:20;;;;;;;;;;;;;;;8.38;100.00;102727.13;5070718;28;19916;-77
2024/02/20 10:36:45;;;;;;;;;;;;;;;8.39;100.00;102728.88;5071298;28;19948;-77
2024/02/20 10:39:10;;;;;;;;;;;;;;;8.42;100.00;102725.41;5052255;28;20444;-77
2024/02/20 10:41:36;;;;;;;;;;;;;;;8.44;100.00;102723.69;5071545;28;20212;-77
2024/02/20 10:44:02;;;;;;;;;;;;;;;8.49;100.00;102723.69;5070496;28;20262;-77
2024/02/20 10:46:27;;;;;;;;;;;;;;;8.53;100.00;102722.78;5070295;28;19917;-77
2024/02/20 10:48:58;;;;;;;;;;;;;;;8.58;100.00;102723.66;5049415;28;19920;-77
2024/02/20 10:51:26;;;;;;;;;;;;;;;8.62;100.00;102723.66;5052977;28;19925;-77
2024/02/20 10:53:52;;;;;;;;;;;;;;;8.62;100.00;102723.66;5063899;28;19984;-77
2024/02/20 10:56:17;;;;;;;;;;;;;;;8.61;100.00;102721.06;5051945;28;19963;-77
2024/02/20 10:58:45;;;;;;;;;;;;;;;8.62;100.00;102721.06;5058289;28;19951;-77
2024/02/20 11:01:11;;;;;;;;;;;;;;;8.64;100.00;102718.41;5053961;28;19947;-77
2024/02/20 11:03:37;;;;;;;;;;;;;;;8.65;100.00;102723.63;5070393;28;20283;-78
2024/02/20 11:06:02;;;;;;;;;;;;;;;8.67;100.00;102722.78;5062967;28;19927;-77
2024/02/20 11:08:28;;;;;;;;;;;;;;;8.70;100.00;102717.56;5050842;28;20119;-77
2024/02/20 11:10:54;;;;;;;;;;;;;;;8.74;100.00;102717.53;5070742;28;19920;-77
2024/02/20 11:13:25;;;;;;;;;;;;;;;8.78;100.00;102710.53;5068337;28;19924;-77
2024/02/20 11:15:51;;;;;;;;;;;;;;;8.79;100.00;102714.91;5067816;28;20126;-77
2024/02/20 11:18:18;;;;;;;;;;;;;;;8.82;100.00;102722.72;5068157;28;20132;-77
2024/02/20 11:20:44;;;;;;;;;;;;;;;8.83;100.00;102721.84;5069982;28;20005;-78
2024/02/20 11:23:09;;;;;;;;;;;;;;;8.84;100.00;102718.34;5062038;28;19917;-77
2024/02/20 11:25:37;;;;;;;;;;;;;;;8.83;100.00;102725.31;5036973;28;19925;-78
2024/02/20 11:28:10;;;;;;;;;;;;;;;8.88;100.00;102719.22;5070519;28;20225;-78
2024/02/20 11:30:37;;;;;;;;;;;;;;;8.91;100.00;102712.22;5067289;28;20008;-78
2024/02/20 11:33:11;;;;;;;;;;;;;;;8.96;100.00;102707.84;5067880;28;19958;-78
2024/02/20 11:35:36;;;;;;;;;;;;;;;9.00;100.00;102699.16;5070888;28;19921;-78
2024/02/20 11:38:03;;;;;;;;;;;;;;;9.05;100.00;102701.72;5068587;28;19922;-78
2024/02/20 11:40:32;;;;;;;;;;;;;;;9.03;100.00;102695.66;5071506;28;20211;-77
2024/02/20 11:42:59;;;;;;;;;;;;;;;9.00;100.00;102675.63;5069330;28;19916;-78
2024/02/20 11:45:26;;;;;;;;;;;;;;;9.00;100.00;102675.63;5066385;28;19938;-78
2024/02/20 11:47:57;;;;;;;;;;;;;;;8.97;100.00;102674.78;5068679;28;20327;-77
2024/02/20 11:50:22;;;;;;;;;;;;;;;8.95;100.00;102672.16;5069430;28;19925;-77
2024/02/20 11:52:56;;;;;;;;;;;;;;;8.97;100.00;102667.81;5069131;28;19908;-77
2024/02/20 11:55:21;;;;;;;;;;;;;;;9.00;100.00;102657.34;5068904;28;20140;-78
2024/02/20 11:57:46;;;;;;;;;;;;;;;9.01;100.00;102638.16;5067809;28;19949;-77
2024/02/20 12:00:12;;;;;;;;;;;;;;;9.03;100.00;102633.78;5053996;28;19916;-77
2024/02/20 12:02:38;;;;;;;;;;;;;;;9.07;100.00;102623.31;5042692;28;20243;-78
2024/02/20 12:05:06;;;;;;;;;;;;;;;9.08;100.00;102625.94;5079208;28;19917;-78
2024/02/20 12:07:31;;;;;;;;;;;;;;;9.10;100.00;102626.78;5064753;28;19921;-78
2024/02/20 12:09:57;;;;;;;;;;;;;;;9.10;100.00;102624.16;5085788;28;20274;-77
2024/02/20 12:12:26;;;;;;;;;;;;;;;9.12;100.00;102622.41;5078511;28;19944;-78
2024/02/20 12:14:58;;;;;;;;;;;;;;;9.14;100.00;102615.41;5078729;28;19975;-77
2024/02/20 12:17:27;;;;;;;;;;;;;;;9.13;100.00;102625.88;5078208;28;19923;-77
2024/02/20 12:20:02;;;;;;;;;;;;;;;9.10;100.00;102632.00;5077397;28;19916;-78
2024/02/20 12:22:28;;;;;;;;;;;;;;;9.13;100.00;102608.47;5077716;28;19917;-78
2024/02/20 12:25:03;;;;;;;;;;;;;;;9.14;100.00;102604.97;5077997;28;20112;-78
2024/02/20 12:27:28;;;;;;;;;;;;;;;9.16;100.00;102602.34;5077519;28;19916;-78
2024/02/20 12:29:54;;;;;;;;;;;;;;;9.13;100.00;102612.81;5077428;28;19963;-78